Time;durP1;ratioP1;P1;durP2;ratioP2;P2;SDS_P1;SDS_P2;PMS_P1;PMS_P2;Temp;Humidity;BMP_temperature;BMP_pressure;BME280_temperature;BME280_humidity;BME280_pressure;Samples;Min_cycle;Max_cycle;Signal;HPM_P1;HPM_P2
2021/03/02 00:02:03;;;;;;;;;;;;;;;;;;5045403;28;854;-61
2021/03/02 00:04:29;;;;;;;;;;;;;;;;;;5051397;28;1638;-61
2021/03/02 00:06:55;;;;;;;;;;;;;;;;;;5046875;28;1565;-61
2021/03/02 00:09:20;;;;;;;;;;;;;;;;;;5045712;28;851;-62
2021/03/02 00:11:50;;;;;;;;;;;;;;;;;;5045333;28;839;-60
2021/03/02 00:14:15;;;;;;;;;;;;;;;;;;5046430;28;847;-61
2021/03/02 00:16:50;;;;;;;;;;;;;;;;;;5058564;28;1602;-61
2021/03/02 00:19:17;;;;;;;;;;;;;;;;;;5048545;28;1902;-60
2021/03/02 00:21:47;;;;;;;;;;;;;;;;;;5068926;28;882;-61
2021/03/02 00:24:16;;;;;;;;;;;;;;;;;;5070006;28;894;-61
2021/03/02 00:26:43;;;;;;;;;;;;;;;;;;5063956;28;1393;-61
2021/03/02 00:29:10;;;;;;;;;;;;;;;;;;5050412;28;1554;-61
2021/03/02 00:31:36;;;;;;;;;;;;;;;;;;5055615;28;1455;-61
2021/03/02 00:34:01;;;;;;;;;;;;;;;;;;5057402;28;1442;-63
2021/03/02 00:36:27;;;;;;;;;;;;;;;;;;5039831;28;2413;-61
2021/03/02 00:38:52;;;;;;;;;;;;;;;;;;5048649;28;1899;-61
2021/03/02 00:41:18;;;;;;;;;;;;;;;;;;5049762;28;795;-60
2021/03/02 00:43:43;;;;;;;;;;;;;;;;;;5049784;28;819;-60
2021/03/02 00:46:09;;;;;;;;;;;;;;;;;;5049182;28;1640;-60
2021/03/02 00:48:34;;;;;;;;;;;;;;;;;;5049765;28;847;-61
2021/03/02 00:51:00;;;;;;;;;;;;;;;;;;5048978;28;1556;-61
2021/03/02 00:53:25;;;;;;;;;;;;;;;;;;5055591;28;1600;-61
2021/03/02 00:55:51;;;;;;;;;;;;;;;;;;5049730;28;1408;-61
2021/03/02 00:58:16;;;;;;;;;;;;;;;;;;5058268;28;1462;-60
2021/03/02 01:00:41;;;;;;;;;;;;;;;;;;5069724;28;1902;-61
2021/03/02 01:03:07;;;;;;;;;;;;;;;;;;5069491;28;926;-61
2021/03/02 01:05:32;;;;;;;;;;;;;;;;;;5060438;28;1502;-60
2021/03/02 01:07:58;;;;;;;;;;;;;;;;;;5050577;28;858;-60
2021/03/02 01:10:23;;;;;;;;;;;;;;;;;;5049110;28;1029;-60
2021/03/02 01:12:48;;;;;;;;;;;;;;;;;;5045770;28;2627;-61
2021/03/02 01:15:14;;;;;;;;;;;;;;;;;;5041446;28;981;-60
2021/03/02 01:17:39;;;;;;;;;;;;;;;;;;5048157;28;1520;-61
2021/03/02 01:20:05;;;;;;;;;;;;;;;;;;5049555;28;1898;-60
2021/03/02 01:22:30;;;;;;;;;;;;;;;;;;5048759;28;830;-60
2021/03/02 01:24:56;;;;;;;;;;;;;;;;;;5046405;28;1622;-60
2021/03/02 01:27:21;;;;;;;;;;;;;;;;;;5050082;28;1603;-60
2021/03/02 01:29:47;;;;;;;;;;;;;;;;;;5059421;28;1429;-60
2021/03/02 01:32:12;;;;;;;;;;;;;;;;;;5047861;28;850;-60
2021/03/02 01:34:38;;;;;;;;;;;;;;;;;;5049675;28;863;-60
2021/03/02 01:37:03;;;;;;;;;;;;;;;;;;5048829;28;1590;-61
2021/03/02 01:39:29;;;;;;;;;;;;;;;;;;5040597;28;1937;-62
2021/03/02 01:41:55;;;;;;;;;;;;;;;;;;5051372;28;1133;-60
2021/03/02 01:44:20;;;;;;;;;;;;;;;;;;5047775;28;800;-61
2021/03/02 01:46:46;;;;;;;;;;;;;;;;;;5048925;28;807;-63
2021/03/02 01:49:12;;;;;;;;;;;;;;;;;;5063611;28;1404;-61
2021/03/02 01:51:38;;;;;;;;;;;;;;;;;;5039043;28;1504;-61
2021/03/02 01:54:03;;;;;;;;;;;;;;;;;;5064412;28;1423;-63
2021/03/02 01:56:29;;;;;;;;;;;;;;;;;;5063903;28;1531;-61
2021/03/02 01:58:54;;;;;;;;;;;;;;;;;;5065858;28;1902;-62
2021/03/02 02:01:19;;;;;;;;;;;;;;;;;;5056042;28;1442;-61
2021/03/02 02:04:01;;;;;;;;;;;;;;;;;;5045400;28;1545;-62
2021/03/02 02:06:32;;;;;;;;;;;;;;;;;;5045509;28;1543;-62
2021/03/02 02:09:00;;;;;;;;;;;;;;;;;;5046259;28;1480;-62
2021/03/02 02:11:26;;;;;;;;;;;;;;;;;;5047410;28;954;-62
2021/03/02 02:13:57;;;;;;;;;;;;;;;;;;5046292;28;1609;-62
2021/03/02 02:16:23;;;;;;;;;;;;;;;;;;5061659;28;1601;-61
2021/03/02 02:18:49;;;;;;;;;;;;;;;;;;5046733;28;1894;-62
2021/03/02 02:21:18;;;;;;;;;;;;;;;;;;5034805;28;1412;-62
2021/03/02 02:24:04;;;;;;;;;;;;;;;;;;5052858;28;1569;-62
2021/03/02 02:26:42;;;;;;;;;;;;;;;;;;5064905;28;1637;-62
2021/03/02 02:29:09;;;;;;;;;;;;;;;;;;5047080;28;1472;-63
2021/03/02 02:31:38;;;;;;;;;;;;;;;;;;5048060;28;1402;-63
2021/03/02 02:34:03;;;;;;;;;;;;;;;;;;5057986;28;1606;-61
2021/03/02 02:36:30;;;;;;;;;;;;;;;;;;5047174;28;902;-63
2021/03/02 02:38:58;;;;;;;;;;;;;;;;;;5047540;28;1890;-62
2021/03/02 02:41:24;;;;;;;;;;;;;;;;;;5045887;28;1717;-63
2021/03/02 02:43:51;;;;;;;;;;;;;;;;;;5043119;28;1642;-63
2021/03/02 02:46:17;;;;;;;;;;;;;;;;;;5056094;28;1467;-62
2021/03/02 02:48:46;;;;;;;;;;;;;;;;;;5050554;28;1379;-61
2021/03/02 02:51:12;;;;;;;;;;;;;;;;;;5046868;28;930;-64
2021/03/02 02:53:38;;;;;;;;;;;;;;;;;;5054578;28;1500;-63
2021/03/02 02:56:04;;;;;;;;;;;;;;;;;;5067583;28;861;-62
2021/03/02 02:58:37;;;;;;;;;;;;;;;;;;5055219;28;1906;-63
2021/03/02 03:01:03;;;;;;;;;;;;;;;;;;5043493;28;1562;-63
2021/03/02 03:03:30;;;;;;;;;;;;;;;;;;5044404;28;1437;-64
2021/03/02 03:05:57;;;;;;;;;;;;;;;;;;5053336;28;1598;-64
2021/03/02 03:08:27;;;;;;;;;;;;;;;;;;5067026;28;957;-63
2021/03/02 03:10:53;;;;;;;;;;;;;;;;;;5066793;28;842;-63
2021/03/02 03:13:20;;;;;;;;;;;;;;;;;;5062643;28;1397;-64
2021/03/02 03:15:50;;;;;;;;;;;;;;;;;;5051005;28;1570;-61
2021/03/02 03:18:17;;;;;;;;;;;;;;;;;;5060499;28;1563;-61
2021/03/02 03:20:42;;;;;;;;;;;;;;;;;;5066002;28;1882;-61
2021/03/02 03:23:08;;;;;;;;;;;;;;;;;;5056883;28;1495;-61
2021/03/02 03:25:34;;;;;;;;;;;;;;;;;;5046248;28;831;-61
2021/03/02 03:28:02;;;;;;;;;;;;;;;;;;5053194;28;1513;-61
2021/03/02 03:30:28;;;;;;;;;;;;;;;;;;5046175;28;1508;-61
2021/03/02 03:32:58;;;;;;;;;;;;;;;;;;5058839;28;1420;-61
2021/03/02 03:35:24;;;;;;;;;;;;;;;;;;5066184;28;866;-61
2021/03/02 03:37:50;;;;;;;;;;;;;;;;;;5064312;28;1473;-61
2021/03/02 03:40:15;;;;;;;;;;;;;;;;;;5053795;28;1906;-59
2021/03/02 03:42:41;;;;;;;;;;;;;;;;;;5045122;28;1542;-60
2021/03/02 03:45:06;;;;;;;;;;;;;;;;;;5042903;28;1583;-60
2021/03/02 03:47:32;;;;;;;;;;;;;;;;;;5044837;28;1459;-61
2021/03/02 03:49:57;;;;;;;;;;;;;;;;;;5044627;28;1571;-59
2021/03/02 03:52:23;;;;;;;;;;;;;;;;;;5058808;28;1459;-60
2021/03/02 03:54:49;;;;;;;;;;;;;;;;;;5061082;28;1508;-60
2021/03/02 03:57:15;;;;;;;;;;;;;;;;;;5043047;28;1467;-60
2021/03/02 03:59:40;;;;;;;;;;;;;;;;;;5057158;28;1909;-62
2021/03/02 04:02:07;;;;;;;;;;;;;;;;;;5044102;28;1565;-60
2021/03/02 04:04:33;;;;;;;;;;;;;;;;;;5045699;28;1663;-60
2021/03/02 04:06:59;;;;;;;;;;;;;;;;;;5058011;28;1512;-59
2021/03/02 04:09:24;;;;;;;;;;;;;;;;;;5044398;28;1524;-62
2021/03/02 04:11:50;;;;;;;;;;;;;;;;;;5045338;28;867;-62
2021/03/02 04:14:15;;;;;;;;;;;;;;;;;;5052949;28;1596;-64
2021/03/02 04:16:42;;;;;;;;;;;;;;;;;;5063249;28;1764;-60
2021/03/02 04:19:08;;;;;;;;;;;;;;;;;;5045280;28;1894;-61
2021/03/02 04:21:33;;;;;;;;;;;;;;;;;;5045664;28;937;-62
2021/03/02 04:23:59;;;;;;;;;;;;;;;;;;5046673;28;887;-61
2021/03/02 04:26:24;;;;;;;;;;;;;;;;;;5044385;28;1625;-62
2021/03/02 04:28:49;;;;;;;;;;;;;;;;;;5066726;28;901;-60
2021/03/02 04:31:15;;;;;;;;;;;;;;;;;;5053688;28;1581;-59
2021/03/02 04:33:40;;;;;;;;;;;;;;;;;;5067024;28;913;-58
2021/03/02 04:36:06;;;;;;;;;;;;;;;;;;5065747;28;878;-59
2021/03/02 04:38:31;;;;;;;;;;;;;;;;;;5060204;28;1475;-60
2021/03/02 04:40:57;;;;;;;;;;;;;;;;;;5046100;28;1960;-61
2021/03/02 04:43:23;;;;;;;;;;;;;;;;;;5047859;28;1060;-61
2021/03/02 04:45:48;;;;;;;;;;;;;;;;;;5046581;28;894;-61
2021/03/02 04:48:14;;;;;;;;;;;;;;;;;;5043371;28;1599;-59
2021/03/02 04:50:39;;;;;;;;;;;;;;;;;;5047214;28;871;-59
2021/03/02 04:53:05;;;;;;;;;;;;;;;;;;5037604;28;1709;-62
2021/03/02 04:55:30;;;;;;;;;;;;;;;;;;5027995;28;1757;-59
2021/03/02 04:57:55;;;;;;;;;;;;;;;;;;5044108;28;1565;-61
2021/03/02 05:00:21;;;;;;;;;;;;;;;;;;5061496;28;1914;-61
2021/03/02 05:02:46;;;;;;;;;;;;;;;;;;5063245;28;1614;-61
2021/03/02 05:05:12;;;;;;;;;;;;;;;;;;5053332;28;1519;-60
2021/03/02 05:07:37;;;;;;;;;;;;;;;;;;5064205;28;1585;-59
2021/03/02 05:10:03;;;;;;;;;;;;;;;;;;5049050;28;898;-59
2021/03/02 05:12:28;;;;;;;;;;;;;;;;;;5048842;28;807;-60
2021/03/02 05:14:54;;;;;;;;;;;;;;;;;;5049739;28;915;-59
2021/03/02 05:17:19;;;;;;;;;;;;;;;;;;5049834;28;1477;-59
2021/03/02 05:19:44;;;;;;;;;;;;;;;;;;5045905;28;1968;-59
2021/03/02 05:22:10;;;;;;;;;;;;;;;;;;5046940;28;1432;-59
2021/03/02 05:24:35;;;;;;;;;;;;;;;;;;5047811;28;935;-60
2021/03/02 05:27:00;;;;;;;;;;;;;;;;;;5048986;28;927;-61
2021/03/02 05:29:26;;;;;;;;;;;;;;;;;;5051704;28;1768;-59
2021/03/02 05:31:51;;;;;;;;;;;;;;;;;;5056344;28;1418;-62
2021/03/02 05:34:16;;;;;;;;;;;;;;;;;;5045739;28;1460;-62
2021/03/02 05:36:42;;;;;;;;;;;;;;;;;;5045316;28;1637;-62
2021/03/02 05:39:07;;;;;;;;;;;;;;;;;;5047885;28;1959;-60
2021/03/02 05:41:33;;;;;;;;;;;;;;;;;;5069172;28;891;-59
2021/03/02 05:43:59;;;;;;;;;;;;;;;;;;5070652;28;897;-61
2021/03/02 05:46:25;;;;;;;;;;;;;;;;;;5069404;28;1071;-59
2021/03/02 05:48:50;;;;;;;;;;;;;;;;;;5052995;28;1416;-59
2021/03/02 05:51:19;;;;;;;;;;;;;;;;;;5048221;28;1383;-59
2021/03/02 05:53:44;;;;;;;;;;;;;;;;;;5056262;28;1593;-61
2021/03/02 05:56:10;;;;;;;;;;;;;;;;;;5068923;28;1369;-62
2021/03/02 05:58:36;;;;;;;;;;;;;;;;;;5057235;28;1465;-61
2021/03/02 06:01:02;;;;;;;;;;;;;;;;;;5047988;28;1472;-60
2021/03/02 06:03:27;;;;;;;;;;;;;;;;;;5055813;28;1571;-62
2021/03/02 06:05:54;;;;;;;;;;;;;;;;;;5038689;28;1441;-61
2021/03/02 06:08:19;;;;;;;;;;;;;;;;;;5027682;28;808;-62
2021/03/02 06:10:45;;;;;;;;;;;;;;;;;;5028108;28;851;-61
2021/03/02 06:13:10;;;;;;;;;;;;;;;;;;5037402;28;1554;-61
2021/03/02 06:15:51;;;;;;;;;;;;;;;;;;5058834;28;1476;-62
2021/03/02 06:18:18;;;;;;;;;;;;;;;;;;5046635;28;1514;-61
2021/03/02 06:20:43;;;;;;;;;;;;;;;;;;5046944;28;1886;-61
2021/03/02 06:23:18;;;;;;;;;;;;;;;;;;5047123;28;1648;-61
2021/03/02 06:25:43;;;;;;;;;;;;;;;;;;5048465;28;1079;-63
2021/03/02 06:28:09;;;;;;;;;;;;;;;;;;5046438;28;1640;-61
2021/03/02 06:30:36;;;;;;;;;;;;;;;;;;5047336;28;823;-60
2021/03/02 06:33:01;;;;;;;;;;;;;;;;;;5044954;28;1410;-60
2021/03/02 06:35:34;;;;;;;;;;;;;;;;;;5046438;28;1145;-62
2021/03/02 06:38:00;;;;;;;;;;;;;;;;;;5045404;28;1164;-59
2021/03/02 06:40:39;;;;;;;;;;;;;;;;;;5044520;28;1910;-59
2021/03/02 06:43:05;;;;;;;;;;;;;;;;;;5043971;28;1648;-61
2021/03/02 06:45:30;;;;;;;;;;;;;;;;;;5045851;28;1068;-62
2021/03/02 06:48:05;;;;;;;;;;;;;;;;;;5045579;28;1431;-63
2021/03/02 06:50:38;;;;;;;;;;;;;;;;;;5044736;28;1140;-63
2021/03/02 06:53:13;;;;;;;;;;;;;;;;;;5047628;28;1373;-63
2021/03/02 06:55:39;;;;;;;;;;;;;;;;;;5046877;28;1577;-63
2021/03/02 06:58:15;;;;;;;;;;;;;;;;;;5047754;28;1507;-63
2021/03/02 07:00:44;;;;;;;;;;;;;;;;;;5045300;28;1975;-62
2021/03/02 07:03:20;;;;;;;;;;;;;;;;;;5052400;28;1715;-62
2021/03/02 07:05:48;;;;;;;;;;;;;;;;;;5044092;28;1534;-62
2021/03/02 07:08:13;;;;;;;;;;;;;;;;;;5040599;28;1688;-62
2021/03/02 07:10:39;;;;;;;;;;;;;;;;;;5057238;28;1417;-62
2021/03/02 07:13:05;;;;;;;;;;;;;;;;;;5044879;28;1071;-62
2021/03/02 07:15:30;;;;;;;;;;;;;;;;;;5042085;28;1385;-62
2021/03/02 07:17:56;;;;;;;;;;;;;;;;;;5045985;28;1156;-61
2021/03/02 07:20:23;;;;;;;;;;;;;;;;;;5043018;28;1963;-61
2021/03/02 07:22:50;;;;;;;;;;;;;;;;;;5043909;28;1057;-62
2021/03/02 07:25:21;;;;;;;;;;;;;;;;;;5043893;28;1411;-61
2021/03/02 07:27:48;;;;;;;;;;;;;;;;;;5045668;28;1179;-62
2021/03/02 07:30:13;;;;;;;;;;;;;;;;;;5040910;28;1550;-62
2021/03/02 07:32:39;;;;;;;;;;;;;;;;;;5044055;28;1554;-61
2021/03/02 07:35:06;;;;;;;;;;;;;;;;;;5044499;28;1576;-62
2021/03/02 07:37:32;;;;;;;;;;;;;;;;;;5043469;28;1419;-61
2021/03/02 07:40:14;;;;;;;;;;;;;;;;;;5045215;28;1964;-62
2021/03/02 07:42:40;;;;;;;;;;;;;;;;;;5043986;28;1596;-61
2021/03/02 07:45:16;;;;;;;;;;;;;;;;;;5044067;28;1488;-61
2021/03/02 07:47:47;;;;;;;;;;;;;;;;;;5044705;28;1521;-58
2021/03/02 07:50:16;;;;;;;;;;;;;;;;;;5045381;28;1749;-62
2021/03/02 07:52:41;;;;;;;;;;;;;;;;;;5057964;28;1708;-61
2021/03/02 07:55:20;;;;;;;;;;;;;;;;;;5052318;28;1537;-58
2021/03/02 07:57:46;;;;;;;;;;;;;;;;;;5047634;28;1596;-59
2021/03/02 08:00:14;;;;;;;;;;;;;;;;;;5043689;28;1898;-59
2021/03/02 08:02:40;;;;;;;;;;;;;;;;;;5042643;28;1630;-59
2021/03/02 08:05:24;;;;;;;;;;;;;;;;;;5042656;28;1355;-62
2021/03/02 08:07:49;;;;;;;;;;;;;;;;;;5042153;28;1411;-61
2021/03/02 08:10:41;;;;;;;;;;;;;;;;;;5048204;28;1584;-62
2021/03/02 08:13:25;;;;;;;;;;;;;;;;;;5050263;28;1891;-62
2021/03/02 08:15:50;;;;;;;;;;;;;;;;;;5041479;28;1394;-59
2021/03/02 08:18:28;;;;;;;;;;;;;;;;;;5039838;28;1557;-62
2021/03/02 08:21:04;;;;;;;;;;;;;;;;;;5040378;28;1965;-59
2021/03/02 08:23:49;;;;;;;;;;;;;;;;;;5044005;28;1080;-62
2021/03/02 08:26:34;;;;;;;;;;;;;;;;;;5043523;28;1164;-60
2021/03/02 08:29:09;;;;;;;;;;;;;;;;;;5043690;28;1428;-60
2021/03/02 08:31:36;;;;;;;;;;;;;;;;;;5043098;28;1255;-59
2021/03/02 08:34:02;;;;;;;;;;;;;;;;;;5043976;28;1498;-60
2021/03/02 08:36:31;;;;;;;;;;;;;;;;;;5039353;28;1484;-60
2021/03/02 08:38:57;;;;;;;;;;;;;;;;;;5043102;28;1913;-60
2021/03/02 08:41:28;;;;;;;;;;;;;;;;;;5041903;28;1744;-60
2021/03/02 08:43:54;;;;;;;;;;;;;;;;;;5042478;28;1600;-59
2021/03/02 08:46:23;;;;;;;;;;;;;;;;;;5047120;28;1505;-60
2021/03/02 08:48:49;;;;;;;;;;;;;;;;;;5040703;28;1582;-59
2021/03/02 08:51:18;;;;;;;;;;;;;;;;;;5044629;28;1566;-59
2021/03/02 08:53:47;;;;;;;;;;;;;;;;;;5048708;28;1444;-60
2021/03/02 08:56:15;;;;;;;;;;;;;;;;;;5051401;28;1489;-59
2021/03/02 08:58:42;;;;;;;;;;;;;;;;;;5048667;28;1430;-60
2021/03/02 09:01:10;;;;;;;;;;;;;;;;;;5047674;28;1985;-60
2021/03/02 09:03:37;;;;;;;;;;;;;;;;;;5048270;28;1429;-60
2021/03/02 09:06:12;;;;;;;;;;;;;;;;;;5047290;28;1504;-59
2021/03/02 09:08:43;;;;;;;;;;;;;;;;;;5045723;28;1439;-60
2021/03/02 09:11:09;;;;;;;;;;;;;;;;;;5042858;28;1195;-60
2021/03/02 09:13:39;;;;;;;;;;;;;;;;;;5048658;28;1096;-60
2021/03/02 09:16:23;;;;;;;;;;;;;;;;;;5048142;28;1457;-60
2021/03/02 09:18:56;;;;;;;;;;;;;;;;;;5040243;28;1894;-60
2021/03/02 09:21:22;;;;;;;;;;;;;;;;;;5045425;28;1601;-60
2021/03/02 09:23:47;;;;;;;;;;;;;;;;;;5048414;28;1515;-61
2021/03/02 09:26:18;;;;;;;;;;;;;;;;;;5048202;28;1021;-60
2021/03/02 09:28:43;;;;;;;;;;;;;;;;;;5052807;28;1155;-60
2021/03/02 09:31:09;;;;;;;;;;;;;;;;;;5056000;28;1376;-59
2021/03/02 09:33:34;;;;;;;;;;;;;;;;;;5044452;28;1604;-59
2021/03/02 09:35:59;;;;;;;;;;;;;;;;;;5050532;28;1451;-59
2021/03/02 09:38:28;;;;;;;;;;;;;;;;;;5053686;28;1481;-60
2021/03/02 09:40:53;;;;;;;;;;;;;;;;;;5045520;28;1894;-62
2021/03/02 09:43:19;;;;;;;;;;;;;;;;;;5047251;28;1250;-62
2021/03/02 09:45:54;;;;;;;;;;;;;;;;;;5047533;28;1191;-62
2021/03/02 09:48:20;;;;;;;;;;;;;;;;;;5044772;28;1549;-62
2021/03/02 09:50:45;;;;;;;;;;;;;;;;;;5044292;28;1240;-62
2021/03/02 09:53:14;;;;;;;;;;;;;;;;;;5050386;28;1509;-61
2021/03/02 09:55:42;;;;;;;;;;;;;;;;;;5042812;28;1582;-61
2021/03/02 09:58:15;;;;;;;;;;;;;;;;;;5046280;28;1537;-61
2021/03/02 10:00:40;;;;;;;;;;;;;;;;;;5060004;28;1910;-61
2021/03/02 10:03:08;;;;;;;;;;;;;;;;;;5046195;28;1577;-61
2021/03/02 10:05:40;;;;;;;;;;;;;;;;;;5045206;28;1364;-61
2021/03/02 10:08:38;;;;;;;;;;;;;;;;;;5043981;28;1631;-61
2021/03/02 10:11:17;;;;;;;;;;;;;;;;;;5070688;28;1737;-60
2021/03/02 10:13:46;;;;;;;;;;;;;;;;;;5046879;28;1372;-60
2021/03/02 10:16:30;;;;;;;;;;;;;;;;;;5048087;28;830;-60
2021/03/02 10:18:56;;;;;;;;;;;;;;;;;;5043377;28;1898;-61
2021/03/02 10:21:21;;;;;;;;;;;;;;;;;;5042537;28;1563;-61
2021/03/02 10:23:48;;;;;;;;;;;;;;;;;;5046095;28;1444;-60
2021/03/02 10:26:22;;;;;;;;;;;;;;;;;;5044207;28;1487;-61
2021/03/02 10:28:47;;;;;;;;;;;;;;;;;;5043627;28;1483;-61
2021/03/02 10:31:13;;;;;;;;;;;;;;;;;;5046871;28;1448;-61
2021/03/02 10:33:38;;;;;;;;;;;;;;;;;;5056190;28;1173;-62
2021/03/02 10:36:04;;;;;;;;;;;;;;;;;;5048303;28;1425;-61
2021/03/02 10:38:29;;;;;;;;;;;;;;;;;;5042918;28;1687;-61
2021/03/02 10:40:54;;;;;;;;;;;;;;;;;;5045823;28;1966;-61
2021/03/02 10:43:20;;;;;;;;;;;;;;;;;;5045972;28;1598;-60
2021/03/02 10:45:45;;;;;;;;;;;;;;;;;;5045240;28;1461;-61
2021/03/02 10:48:11;;;;;;;;;;;;;;;;;;5044396;28;1435;-60
2021/03/02 10:50:36;;;;;;;;;;;;;;;;;;5059770;28;1480;-61
2021/03/02 10:53:02;;;;;;;;;;;;;;;;;;5044411;28;1512;-60
2021/03/02 10:55:27;;;;;;;;;;;;;;;;;;5044723;28;1542;-62
2021/03/02 10:57:53;;;;;;;;;;;;;;;;;;5044543;28;1496;-60
2021/03/02 11:00:18;;;;;;;;;;;;;;;;;;5064537;28;1976;-61
2021/03/02 11:02:44;;;;;;;;;;;;;;;;;;5066453;28;914;-62
2021/03/02 11:05:10;;;;;;;;;;;;;;;;;;5047126;28;1550;-60
2021/03/02 11:07:35;;;;;;;;;;;;;;;;;;5066904;28;1431;-61
2021/03/02 11:10:01;;;;;;;;;;;;;;;;;;5066795;28;883;-60
2021/03/02 11:12:26;;;;;;;;;;;;;;;;;;5067591;28;847;-62
2021/03/02 11:14:51;;;;;;;;;;;;;;;;;;5059246;28;1386;-62
2021/03/02 11:17:17;;;;;;;;;;;;;;;;;;5056110;28;1354;-63
2021/03/02 11:19:42;;;;;;;;;;;;;;;;;;5048419;28;1959;-61
2021/03/02 11:22:08;;;;;;;;;;;;;;;;;;5045119;28;1532;-62
2021/03/02 11:24:33;;;;;;;;;;;;;;;;;;5045577;28;1456;-62
2021/03/02 11:26:59;;;;;;;;;;;;;;;;;;5047237;28;1564;-61
2021/03/02 11:29:24;;;;;;;;;;;;;;;;;;5043300;28;1438;-60
2021/03/02 11:31:49;;;;;;;;;;;;;;;;;;5043564;28;1571;-62
2021/03/02 11:34:15;;;;;;;;;;;;;;;;;;5045395;28;1520;-61
2021/03/02 11:36:40;;;;;;;;;;;;;;;;;;5044423;28;1437;-61
2021/03/02 11:39:05;;;;;;;;;;;;;;;;;;5049520;28;1902;-62
2021/03/02 11:41:31;;;;;;;;;;;;;;;;;;5059232;28;1155;-61
2021/03/02 11:43:56;;;;;;;;;;;;;;;;;;5045274;28;1745;-62
2021/03/02 11:46:22;;;;;;;;;;;;;;;;;;5040254;28;851;-63
2021/03/02 11:48:47;;;;;;;;;;;;;;;;;;5042133;28;1462;-62
2021/03/02 11:51:12;;;;;;;;;;;;;;;;;;5056898;28;1488;-62
2021/03/02 11:53:38;;;;;;;;;;;;;;;;;;5053764;28;1083;-62
2021/03/02 11:56:03;;;;;;;;;;;;;;;;;;5062155;28;1086;-61
2021/03/02 11:58:29;;;;;;;;;;;;;;;;;;5053284;28;1253;-61
2021/03/02 12:00:54;;;;;;;;;;;;;;;;;;5041775;28;1977;-61
2021/03/02 12:03:21;;;;;;;;;;;;;;;;;;5041137;28;1428;-61
2021/03/02 12:05:46;;;;;;;;;;;;;;;;;;5057657;28;1468;-60
2021/03/02 12:08:11;;;;;;;;;;;;;;;;;;5043419;28;1637;-61
2021/03/02 12:10:37;;;;;;;;;;;;;;;;;;5052497;28;1517;-61
2021/03/02 12:13:02;;;;;;;;;;;;;;;;;;5039466;28;1573;-61
2021/03/02 12:15:28;;;;;;;;;;;;;;;;;;5042672;28;1656;-61
2021/03/02 12:17:53;;;;;;;;;;;;;;;;;;5032446;28;1477;-61
2021/03/02 12:20:18;;;;;;;;;;;;;;;;;;5046575;28;1959;-62
2021/03/02 12:22:44;;;;;;;;;;;;;;;;;;5049191;28;1285;-61
2021/03/02 12:25:10;;;;;;;;;;;;;;;;;;5046918;28;1445;-61
2021/03/02 12:27:36;;;;;;;;;;;;;;;;;;5042289;28;1595;-61
2021/03/02 12:30:03;;;;;;;;;;;;;;;;;;5062645;28;1506;-61
2021/03/02 12:32:28;;;;;;;;;;;;;;;;;;5053086;28;1516;-60
2021/03/02 12:34:53;;;;;;;;;;;;;;;;;;5051370;28;1662;-60
2021/03/02 12:37:19;;;;;;;;;;;;;;;;;;5048197;28;1677;-61
2021/03/02 12:39:44;;;;;;;;;;;;;;;;;;5042098;28;1898;-61
2021/03/02 12:42:10;;;;;;;;;;;;;;;;;;5055259;28;1614;-62
2021/03/02 12:44:35;;;;;;;;;;;;;;;;;;5049759;28;2496;-60
2021/03/02 12:47:01;;;;;;;;;;;;;;;;;;5046558;28;1460;-62
2021/03/02 12:49:26;;;;;;;;;;;;;;;;;;5050796;28;1528;-61
2021/03/02 12:51:51;;;;;;;;;;;;;;;;;;5057394;28;1463;-61
2021/03/02 12:54:17;;;;;;;;;;;;;;;;;;5048795;28;1502;-61
2021/03/02 12:56:42;;;;;;;;;;;;;;;;;;5050012;28;1440;-60
2021/03/02 12:59:07;;;;;;;;;;;;;;;;;;5043005;28;1977;-60
2021/03/02 13:01:33;;;;;;;;;;;;;;;;;;5053465;28;1562;-61
2021/03/02 13:03:59;;;;;;;;;;;;;;;;;;5056195;28;1571;-60
2021/03/02 13:06:24;;;;;;;;;;;;;;;;;;5048374;28;1504;-61
2021/03/02 13:08:50;;;;;;;;;;;;;;;;;;5048331;28;1081;-61
2021/03/02 13:11:17;;;;;;;;;;;;;;;;;;5048153;28;1080;-61
2021/03/02 13:13:42;;;;;;;;;;;;;;;;;;5049539;28;1569;-60
2021/03/02 13:16:08;;;;;;;;;;;;;;;;;;5048959;28;1444;-61
2021/03/02 13:18:34;;;;;;;;;;;;;;;;;;5048033;28;1488;-62
2021/03/02 13:20:59;;;;;;;;;;;;;;;;;;5045232;28;1902;-61
2021/03/02 13:23:25;;;;;;;;;;;;;;;;;;5045377;28;1376;-60
2021/03/02 13:25:52;;;;;;;;;;;;;;;;;;5063416;28;1569;-61
2021/03/02 13:28:18;;;;;;;;;;;;;;;;;;5054886;28;1475;-60
2021/03/02 13:30:44;;;;;;;;;;;;;;;;;;5063990;28;1578;-60
2021/03/02 13:33:10;;;;;;;;;;;;;;;;;;5046786;28;1542;-60
2021/03/02 13:35:36;;;;;;;;;;;;;;;;;;5045190;28;1495;-62
2021/03/02 13:38:02;;;;;;;;;;;;;;;;;;5049493;28;917;-61
2021/03/02 13:40:28;;;;;;;;;;;;;;;;;;5048337;28;1893;-61
2021/03/02 13:42:54;;;;;;;;;;;;;;;;;;5046758;28;1598;-60
2021/03/02 13:45:21;;;;;;;;;;;;;;;;;;5047453;28;1569;-61
2021/03/02 13:47:47;;;;;;;;;;;;;;;;;;5065066;28;1328;-61
2021/03/02 13:50:13;;;;;;;;;;;;;;;;;;5050187;28;1490;-60
2021/03/02 13:52:39;;;;;;;;;;;;;;;;;;5061953;28;1387;-61
2021/03/02 13:55:05;;;;;;;;;;;;;;;;;;5066639;28;1592;-60
2021/03/02 13:57:32;;;;;;;;;;;;;;;;;;5045608;28;1621;-61
2021/03/02 13:59:57;;;;;;;;;;;;;;;;;;5050392;28;1906;-60
2021/03/02 14:02:24;;;;;;;;;;;;;;;;;;5067720;28;933;-60
2021/03/02 14:04:49;;;;;;;;;;;;;;;;;;5058833;28;1422;-60
2021/03/02 14:07:17;;;;;;;;;;;;;;;;;;5048147;28;1663;-60
2021/03/02 14:09:45;;;;;;;;;;;;;;;;;;5047868;28;1585;-60
2021/03/02 14:12:10;;;;;;;;;;;;;;;;;;5046011;28;1561;-61
2021/03/02 14:14:38;;;;;;;;;;;;;;;;;;5051943;28;1441;-60
2021/03/02 14:17:03;;;;;;;;;;;;;;;;;;5066068;28;1625;-61
2021/03/02 14:19:29;;;;;;;;;;;;;;;;;;5052245;28;1999;-60
2021/03/02 14:21:54;;;;;;;;;;;;;;;;;;5046199;28;1428;-61
2021/03/02 14:24:20;;;;;;;;;;;;;;;;;;5047940;28;1602;-61
2021/03/02 14:26:46;;;;;;;;;;;;;;;;;;5047012;28;1657;-61
2021/03/02 14:29:14;;;;;;;;;;;;;;;;;;5051663;28;1504;-61
2021/03/02 14:31:40;;;;;;;;;;;;;;;;;;5061466;28;1496;-60
2021/03/02 14:34:05;;;;;;;;;;;;;;;;;;5046167;28;1408;-60
2021/03/02 14:36:31;;;;;;;;;;;;;;;;;;5047610;28;843;-60
2021/03/02 14:38:56;;;;;;;;;;;;;;;;;;5044389;28;1447;-61
2021/03/02 14:41:23;;;;;;;;;;;;;;;;;;5047661;28;1898;-61
2021/03/02 14:43:51;;;;;;;;;;;;;;;;;;5046891;28;914;-60
2021/03/02 14:46:20;;;;;;;;;;;;;;;;;;5062787;28;1543;-61
2021/03/02 14:48:50;;;;;;;;;;;;;;;;;;5066773;28;1596;-60
2021/03/02 14:51:19;;;;;;;;;;;;;;;;;;5067762;28;902;-61
2021/03/02 14:53:44;;;;;;;;;;;;;;;;;;5064612;28;1351;-60
2021/03/02 14:56:15;;;;;;;;;;;;;;;;;;5055019;28;1433;-61
2021/03/02 14:58:42;;;;;;;;;;;;;;;;;;5044578;28;1415;-61
2021/03/02 15:01:08;;;;;;;;;;;;;;;;;;5042599;28;1961;-61
2021/03/02 15:03:34;;;;;;;;;;;;;;;;;;5045198;28;1605;-61
2021/03/02 15:06:00;;;;;;;;;;;;;;;;;;5046818;28;1406;-61
2021/03/02 15:08:29;;;;;;;;;;;;;;;;;;5058311;28;1554;-61
2021/03/02 15:10:54;;;;;;;;;;;;;;;;;;5051945;28;1680;-61
2021/03/02 15:13:20;;;;;;;;;;;;;;;;;;5006789;28;10424;-61
2021/03/02 15:15:46;;;;;;;;;;;;;;;;;;5025696;28;1509;-61
2021/03/02 15:18:12;;;;;;;;;;;;;;;;;;5025709;28;1446;-60
2021/03/02 15:20:37;;;;;;;;;;;;;;;;;;5024180;28;1910;-61
2021/03/02 15:23:05;;;;;;;;;;;;;;;;;;5023702;28;1461;-61
2021/03/02 15:25:31;;;;;;;;;;;;;;;;;;5037370;28;1523;-61
2021/03/02 15:27:57;;;;;;;;;;;;;;;;;;5033542;28;1438;-61
2021/03/02 15:30:23;;;;;;;;;;;;;;;;;;5027089;28;1065;-60
2021/03/02 15:32:49;;;;;;;;;;;;;;;;;;5024277;28;1450;-61
2021/03/02 15:35:15;;;;;;;;;;;;;;;;;;5026472;28;1377;-61
2021/03/02 15:37:42;;;;;;;;;;;;;;;;;;5025702;28;1471;-60
2021/03/02 15:40:17;;;;;;;;;;;;;;;;;;5025447;28;1918;-61
2021/03/02 15:42:43;;;;;;;;;;;;;;;;;;5025833;28;1353;-60
2021/03/02 15:45:10;;;;;;;;;;;;;;;;;;5029204;28;1426;-61
2021/03/02 15:47:36;;;;;;;;;;;;;;;;;;5025090;28;1491;-61
2021/03/02 15:50:05;;;;;;;;;;;;;;;;;;5023090;28;1527;-61
2021/03/02 15:52:30;;;;;;;;;;;;;;;;;;5032455;28;1634;-61
2021/03/02 15:54:57;;;;;;;;;;;;;;;;;;5023289;28;1489;-60
2021/03/02 15:57:23;;;;;;;;;;;;;;;;;;5027486;28;1242;-61
2021/03/02 15:59:48;;;;;;;;;;;;;;;;;;5025462;28;1901;-61
2021/03/02 16:02:22;;;;;;;;;;;;;;;;;;5025506;28;1452;-61
2021/03/02 16:04:48;;;;;;;;;;;;;;;;;;5028136;28;1602;-61
2021/03/02 16:07:18;;;;;;;;;;;;;;;;;;5044859;28;1677;-60
2021/03/02 16:09:45;;;;;;;;;;;;;;;;;;5046662;28;854;-60
2021/03/02 16:12:18;;;;;;;;;;;;;;;;;;5044293;28;1340;-61
2021/03/02 16:14:53;;;;;;;;;;;;;;;;;;5031497;28;1516;-62
2021/03/02 16:17:21;;;;;;;;;;;;;;;;;;5031273;28;1564;-61
2021/03/02 16:19:48;;;;;;;;;;;;;;;;;;5033878;28;1984;-61
2021/03/02 16:22:20;;;;;;;;;;;;;;;;;;5027194;28;1559;-61
2021/03/02 16:24:45;;;;;;;;;;;;;;;;;;5026835;28;10924;-62
2021/03/02 16:27:12;;;;;;;;;;;;;;;;;;5006516;28;1583;-61
2021/03/02 16:29:38;;;;;;;;;;;;;;;;;;5005005;28;1446;-62
2021/03/02 16:32:03;;;;;;;;;;;;;;;;;;5016070;28;10743;-61
2021/03/02 16:34:29;;;;;;;;;;;;;;;;;;4994329;28;10471;-61
2021/03/02 16:36:57;;;;;;;;;;;;;;;;;;5016607;28;1256;-61
2021/03/02 16:39:23;;;;;;;;;;;;;;;;;;5017450;28;1985;-61
2021/03/02 16:41:49;;;;;;;;;;;;;;;;;;5002135;28;1477;-62
2021/03/02 16:44:15;;;;;;;;;;;;;;;;;;5004690;28;1474;-61
2021/03/02 16:46:41;;;;;;;;;;;;;;;;;;5005910;28;1427;-62
2021/03/02 16:49:11;;;;;;;;;;;;;;;;;;5000803;28;1543;-61
2021/03/02 16:51:37;;;;;;;;;;;;;;;;;;5003901;28;1355;-61
2021/03/02 16:54:02;;;;;;;;;;;;;;;;;;4999037;28;1682;-65
2021/03/02 16:56:28;;;;;;;;;;;;;;;;;;5002750;28;1631;-61
2021/03/02 16:58:56;;;;;;;;;;;;;;;;;;4998983;28;1743;-61
2021/03/02 17:01:27;;;;;;;;;;;;;;;;;;5004465;28;1886;-61
2021/03/02 17:03:53;;;;;;;;;;;;;;;;;;5005432;28;1359;-61
2021/03/02 17:06:20;;;;;;;;;;;;;;;;;;5005620;28;1583;-61